Kilbourne, Illinois
Current Conditions -  °F | °C
As of 11:52 PM on Saturday 25 Oct 2014 (Local Time) from KSPI Reporting Station
Clear Clear  
Wind Chill: 56°   Ceiling: Unl
Heat Index: 56°   Visibility: 10mi
Dew Point: 40°   Wind: 6mph
Humidity: 55%   Direction: 350°N
Pressure: 30.04"   Gusts: NA
Location:  40.15°N, 90.01°W
Report Text: KSPI 260452Z 35005KT 10SM CLR 13/04 A3004 RMK AO2 SLP169 T01330044
Loading
Personal Weather Stations






























Interactive Weather Map
Tropical Storm Tracking
New forecast layout! Learn more

10-Day Weather Forecast

Advertisements
Track Severe Weather on mobile